createdAt,value
2019-01-11T00:00:14.106Z,22.40
2019-01-11T00:02:47.782Z,22.40
2019-01-11T00:05:20.010Z,22.50
2019-01-11T00:07:52.281Z,22.60
2019-01-11T00:10:24.755Z,22.60
2019-01-11T00:12:57.127Z,22.60
2019-01-11T00:15:30.211Z,22.70
2019-01-11T00:18:02.256Z,22.80
2019-01-11T00:20:34.632Z,23.10
2019-01-11T00:23:07.788Z,23.30
2019-01-11T00:25:40.444Z,23.30
2019-01-11T00:28:12.693Z,23.30
2019-01-11T00:30:44.881Z,23.50
2019-01-11T00:33:17.285Z,23.60
2019-01-11T00:35:49.620Z,23.60
2019-01-11T00:38:22.241Z,23.60
2019-01-11T00:40:54.875Z,23.60
2019-01-11T00:43:27.100Z,23.80
2019-01-11T00:45:59.370Z,24.00
2019-01-11T00:48:31.529Z,24.20
2019-01-11T00:51:03.968Z,24.20
2019-01-11T00:53:36.748Z,24.30
2019-01-11T00:56:09.291Z,24.30
2019-01-11T00:58:42.029Z,24.00
2019-01-11T01:01:14.826Z,24.20
2019-01-11T01:03:46.985Z,24.20
2019-01-11T01:06:19.468Z,24.50
2019-01-11T01:08:51.627Z,24.80
2019-01-11T01:11:23.759Z,24.60
2019-01-11T01:13:56.000Z,24.90
2019-01-11T01:16:28.095Z,25.10
2019-01-11T01:19:00.291Z,25.10
2019-01-11T01:21:32.651Z,25.20
2019-01-11T01:24:04.700Z,25.20
2019-01-11T01:26:37.360Z,25.40
2019-01-11T01:29:09.593Z,25.80
2019-01-11T01:31:42.668Z,25.80
2019-01-11T01:34:15.052Z,26.10
2019-01-11T01:36:47.886Z,25.80
2019-01-11T01:39:20.027Z,26.20
2019-01-11T01:41:52.648Z,26.20
2019-01-11T01:44:24.793Z,26.10
2019-01-11T01:46:57.418Z,26.50
2019-01-11T01:49:29.409Z,26.50
2019-01-11T01:52:01.715Z,26.60
2019-01-11T01:54:34.162Z,26.80
2019-01-11T01:57:06.496Z,27.00
2019-01-11T01:59:38.705Z,27.00
2019-01-11T02:02:10.985Z,27.00
2019-01-11T02:04:42.935Z,26.90
2019-01-11T02:07:15.192Z,27.50
2019-01-11T02:09:47.317Z,27.30
2019-01-11T02:12:19.775Z,27.50
2019-01-11T02:14:52.046Z,27.70
2019-01-11T02:17:24.447Z,27.80
2019-01-11T02:19:56.752Z,27.90
2019-01-11T02:22:29.472Z,27.80
2019-01-11T02:25:02.032Z,28.00
2019-01-11T02:27:34.062Z,28.30
2019-01-11T02:30:09.391Z,28.10
2019-01-11T02:32:41.744Z,28.10
2019-01-11T02:35:14.053Z,28.20
2019-01-11T02:37:46.210Z,28.30
2019-01-11T02:40:18.662Z,28.70
2019-01-11T02:42:50.817Z,28.50
2019-01-11T02:45:25.254Z,28.50
2019-01-11T02:47:57.560Z,28.50
2019-01-11T02:50:29.781Z,28.60
2019-01-11T02:53:02.248Z,29.00
2019-01-11T02:55:34.522Z,29.20
2019-01-11T02:58:06.934Z,29.30
2019-01-11T03:00:40.304Z,29.40
2019-01-11T03:03:12.616Z,29.30
2019-01-11T03:05:45.000Z,29.50
2019-01-11T03:08:17.330Z,29.40
2019-01-11T03:10:50.652Z,29.40
2019-01-11T03:13:23.855Z,29.70
2019-01-11T03:15:56.142Z,29.70
2019-01-11T03:18:28.447Z,30.00
2019-01-11T03:21:01.046Z,29.80
2019-01-11T03:23:33.504Z,30.40
2019-01-11T03:26:05.944Z,30.80
2019-01-11T03:28:38.327Z,30.60
2019-01-11T03:31:12.406Z,30.70
2019-01-11T03:33:45.188Z,30.40
2019-01-11T03:36:17.528Z,30.00
2019-01-11T03:38:50.089Z,30.30
2019-01-11T03:41:22.546Z,30.60
2019-01-11T03:43:55.260Z,31.00
2019-01-11T03:46:27.711Z,31.00
2019-01-11T03:49:00.311Z,30.40
2019-01-11T03:51:32.647Z,30.80
2019-01-11T03:54:04.898Z,31.00
2019-01-11T03:56:37.082Z,31.30
2019-01-11T03:59:09.801Z,31.40
2019-01-11T04:01:42.062Z,31.80
2019-01-11T04:04:14.689Z,31.60
2019-01-11T04:06:46.966Z,31.70
2019-01-11T04:09:19.421Z,31.60
2019-01-11T04:11:51.325Z,31.70
2019-01-11T04:14:23.386Z,31.80
2019-01-11T04:16:55.303Z,32.10
2019-01-11T04:19:27.309Z,32.00
2019-01-11T04:22:00.613Z,32.00
2019-01-11T04:24:33.918Z,32.00
2019-01-11T04:27:06.048Z,32.40
2019-01-11T04:29:38.755Z,32.60
2019-01-11T04:32:10.827Z,32.60
2019-01-11T04:34:43.302Z,32.70
2019-01-11T04:37:16.322Z,33.00
2019-01-11T04:39:48.612Z,33.40
2019-01-11T04:42:40.536Z,33.40
2019-01-11T04:45:12.801Z,33.20
2019-01-11T04:47:45.772Z,32.30
2019-01-11T04:50:19.590Z,32.50
2019-01-11T04:52:51.922Z,32.70
2019-01-11T04:55:23.852Z,32.90
2019-01-11T04:57:56.297Z,32.90
2019-01-11T05:00:28.264Z,32.80
2019-01-11T05:03:00.976Z,33.10
2019-01-11T05:05:33.021Z,33.30
2019-01-11T05:08:05.852Z,33.80
2019-01-11T05:10:38.014Z,34.50
2019-01-11T05:13:11.759Z,34.50
2019-01-11T05:15:43.980Z,34.30
2019-01-11T05:18:16.472Z,33.60
2019-01-11T05:20:48.763Z,33.80
2019-01-11T05:23:20.838Z,33.60
2019-01-11T05:25:53.096Z,33.80
2019-01-11T05:28:25.645Z,34.20
2019-01-11T05:30:59.028Z,34.60
2019-01-11T05:33:31.238Z,34.90
2019-01-11T05:36:04.037Z,34.70
2019-01-11T05:38:36.371Z,34.60
2019-01-11T05:41:09.009Z,34.70
2019-01-11T05:43:41.460Z,35.20
2019-01-11T05:46:13.779Z,35.30
2019-01-11T05:48:45.903Z,35.00
2019-01-11T05:51:18.419Z,33.60
2019-01-11T05:53:50.465Z,34.60
2019-01-11T05:56:22.900Z,35.20
2019-01-11T05:58:56.275Z,35.60
2019-01-11T06:01:28.957Z,34.70
2019-01-11T06:04:01.342Z,35.10
2019-01-11T06:06:35.002Z,35.40
2019-01-11T06:09:08.425Z,34.40
2019-01-11T06:11:41.030Z,35.10
2019-01-11T06:14:13.257Z,34.30
2019-01-11T06:16:45.412Z,35.20
2019-01-11T06:19:17.565Z,35.80
2019-01-11T06:21:50.626Z,35.80
2019-01-11T06:24:22.704Z,35.60
2019-01-11T06:26:55.220Z,35.40
2019-01-11T06:29:27.248Z,34.30
2019-01-11T06:31:59.702Z,35.20
2019-01-11T06:34:31.905Z,35.60
2019-01-11T06:37:04.966Z,35.60
2019-01-11T06:39:37.176Z,35.30
2019-01-11T06:42:10.632Z,35.00
2019-01-11T06:44:42.870Z,34.70
2019-01-11T06:47:15.110Z,35.10
2019-01-11T06:49:47.177Z,34.80
2019-01-11T06:52:19.514Z,35.10
2019-01-11T06:54:51.568Z,33.90
2019-01-11T06:57:23.723Z,33.50
2019-01-11T06:59:55.899Z,34.20
2019-01-11T07:02:28.175Z,33.90
2019-01-11T07:05:00.446Z,34.40
2019-01-11T07:07:33.219Z,33.90
2019-01-11T07:10:07.617Z,34.80
2019-01-11T07:12:40.718Z,35.50
2019-01-11T07:15:13.607Z,36.10
2019-01-11T07:17:46.507Z,36.90
2019-01-11T07:20:18.828Z,37.00
2019-01-11T07:22:51.306Z,37.10
2019-01-11T07:25:23.470Z,37.20
2019-01-11T07:27:57.361Z,37.00
2019-01-11T07:30:30.963Z,37.10
2019-01-11T07:33:04.683Z,36.20
2019-01-11T07:35:38.135Z,36.10
2019-01-11T07:38:11.018Z,36.10
2019-01-11T07:40:43.444Z,36.00
2019-01-11T07:43:16.157Z,35.60
2019-01-11T07:45:48.412Z,35.60
2019-01-11T07:48:21.027Z,35.80
2019-01-11T07:50:53.410Z,35.90
2019-01-11T07:53:26.422Z,36.20
2019-01-11T07:55:58.828Z,36.40
2019-01-11T07:58:30.917Z,36.30
2019-01-11T08:01:03.375Z,36.40
2019-01-11T08:03:35.627Z,36.80
2019-01-11T08:06:08.163Z,36.30
2019-01-11T08:08:40.636Z,35.90
2019-01-11T08:11:13.008Z,36.10
2019-01-11T08:13:45.033Z,36.40
2019-01-11T08:16:17.256Z,35.70
2019-01-11T08:18:49.782Z,35.70
2019-01-11T08:21:22.172Z,35.80
2019-01-11T08:23:54.500Z,36.20
2019-01-11T08:26:27.230Z,36.20
2019-01-11T08:28:59.622Z,36.30
2019-01-11T08:31:34.824Z,36.10
2019-01-11T08:34:06.859Z,35.90
2019-01-11T08:36:39.107Z,35.60
2019-01-11T08:39:11.498Z,35.70
2019-01-11T08:41:43.993Z,35.40
2019-01-11T08:44:16.136Z,35.50
2019-01-11T08:46:48.315Z,35.40
2019-01-11T08:49:21.442Z,35.20
2019-01-11T08:51:53.909Z,35.40
2019-01-11T08:54:26.342Z,35.60
2019-01-11T08:56:58.894Z,35.50
2019-01-11T08:59:31.443Z,35.30
2019-01-11T09:02:03.929Z,35.00
2019-01-11T09:04:36.101Z,35.10
2019-01-11T09:07:08.176Z,35.00
2019-01-11T09:09:40.819Z,35.10
2019-01-11T09:12:12.977Z,35.00
2019-01-11T09:14:46.454Z,35.00
2019-01-11T09:17:19.121Z,34.80
2019-01-11T09:19:51.555Z,34.70
2019-01-11T09:22:23.620Z,34.80
2019-01-11T09:24:55.899Z,34.80
2019-01-11T09:27:28.537Z,34.70
2019-01-11T09:30:00.569Z,34.60
2019-01-11T09:32:32.782Z,34.30
2019-01-11T09:35:24.946Z,34.30
2019-01-11T09:37:57.245Z,34.30
2019-01-11T09:40:30.175Z,34.20
2019-01-11T09:43:03.084Z,34.10
2019-01-11T09:45:37.993Z,34.00
2019-01-11T09:48:10.280Z,33.90
2019-01-11T09:50:42.982Z,34.00
2019-01-11T09:53:15.327Z,34.00
2019-01-11T09:55:47.302Z,33.90
2019-01-11T09:58:19.485Z,33.60
2019-01-11T10:00:51.937Z,33.50
2019-01-11T10:03:24.190Z,33.60
2019-01-11T10:05:56.583Z,33.40
2019-01-11T10:08:28.934Z,33.30
2019-01-11T10:11:01.425Z,33.30
2019-01-11T10:13:33.575Z,33.30
2019-01-11T10:16:06.187Z,33.20
2019-01-11T10:18:38.587Z,33.00
2019-01-11T10:21:11.373Z,32.90
2019-01-11T10:23:43.501Z,32.90
2019-01-11T10:26:15.891Z,32.80
2019-01-11T10:28:49.151Z,32.80
2019-01-11T10:31:23.805Z,32.60
2019-01-11T10:33:55.911Z,32.60
2019-01-11T10:36:28.314Z,32.60
2019-01-11T10:39:00.815Z,32.50
2019-01-11T10:41:35.098Z,32.30
2019-01-11T10:44:07.690Z,32.20
2019-01-11T10:46:41.295Z,32.10
2019-01-11T10:49:13.665Z,32.00
2019-01-11T10:51:45.931Z,31.90
2019-01-11T10:54:19.356Z,31.90
2019-01-11T10:56:51.844Z,31.80
2019-01-11T10:59:23.891Z,31.70
2019-01-11T11:01:56.097Z,31.60
2019-01-11T11:04:28.271Z,31.50
2019-01-11T11:07:01.306Z,31.50
2019-01-11T11:09:33.656Z,31.30
2019-01-11T11:12:06.432Z,31.20
2019-01-11T11:14:38.767Z,31.20
2019-01-11T11:17:10.992Z,31.00
2019-01-11T11:19:43.266Z,31.00
2019-01-11T11:22:15.643Z,30.90
2019-01-11T11:24:47.999Z,30.70
2019-01-11T11:27:20.816Z,30.50
2019-01-11T11:29:52.884Z,30.30
2019-01-11T11:32:26.453Z,30.40
2019-01-11T11:34:58.623Z,30.30
2019-01-11T11:37:31.438Z,30.20
2019-01-11T11:40:03.613Z,30.00
2019-01-11T11:42:36.223Z,30.20
2019-01-11T11:45:09.150Z,30.00
2019-01-11T11:47:41.790Z,30.00
2019-01-11T11:50:14.111Z,29.90
2019-01-11T11:52:47.813Z,29.80
2019-01-11T11:55:20.079Z,29.50
2019-01-11T11:57:52.326Z,29.50
2019-01-11T12:00:25.544Z,29.60
2019-01-11T12:02:57.629Z,29.50
2019-01-11T12:05:29.694Z,29.40
2019-01-11T12:08:01.660Z,29.40
2019-01-11T12:10:33.969Z,29.40
2019-01-11T12:13:06.023Z,29.40
2019-01-11T12:15:38.594Z,29.40
2019-01-11T12:18:11.001Z,29.30
2019-01-11T12:20:43.526Z,29.20
2019-01-11T12:23:17.091Z,29.10
2019-01-11T12:25:49.723Z,28.90
2019-01-11T12:28:22.021Z,29.10
2019-01-11T12:30:54.215Z,28.90
2019-01-11T12:33:27.327Z,28.90
2019-01-11T12:35:59.505Z,28.80
2019-01-11T12:38:32.539Z,29.00
2019-01-11T12:41:06.066Z,29.10
2019-01-11T12:43:38.968Z,29.10
2019-01-11T12:46:11.111Z,28.90
2019-01-11T12:48:43.368Z,28.80
2019-01-11T12:51:34.606Z,28.70
2019-01-11T12:54:08.310Z,28.50
2019-01-11T12:56:40.559Z,28.50
2019-01-11T12:59:13.013Z,28.30
2019-01-11T13:01:45.090Z,28.30
2019-01-11T13:06:59.584Z,27.80
2019-01-11T13:09:31.930Z,28.10
2019-01-11T13:12:04.384Z,28.20
2019-01-11T13:14:37.516Z,28.40
2019-01-11T13:17:10.578Z,28.20
2019-01-11T13:19:42.715Z,28.20
2019-01-11T13:22:14.663Z,28.00
2019-01-11T13:24:48.080Z,28.00
2019-01-11T13:27:20.379Z,27.90
2019-01-11T13:29:53.134Z,27.90
2019-01-11T13:32:25.498Z,27.90
2019-01-11T13:34:57.824Z,27.90
2019-01-11T13:37:30.214Z,28.00
2019-01-11T13:40:02.614Z,28.00
2019-01-11T13:42:35.187Z,28.00
2019-01-11T13:45:08.910Z,27.80
2019-01-11T13:47:41.354Z,27.80
2019-01-11T13:50:16.102Z,27.70
2019-01-11T13:52:48.556Z,27.70
2019-01-11T13:55:21.903Z,27.60
2019-01-11T13:57:53.961Z,27.70
2019-01-11T14:00:25.938Z,27.60
2019-01-11T14:02:58.466Z,27.50
2019-01-11T14:05:30.747Z,27.40
2019-01-11T14:08:03.484Z,27.40
2019-01-11T14:10:35.870Z,27.30
2019-01-11T14:13:09.629Z,27.40
2019-01-11T14:15:41.915Z,27.40
2019-01-11T14:18:14.404Z,27.30
2019-01-11T14:20:46.655Z,27.30
2019-01-11T14:23:19.471Z,27.30
2019-01-11T14:25:52.013Z,27.40
2019-01-11T14:28:36.342Z,27.50
2019-01-11T14:31:08.754Z,27.50
2019-01-11T14:33:42.932Z,27.40
2019-01-11T14:36:16.378Z,27.40
2019-01-11T14:38:49.102Z,27.40
2019-01-11T14:41:21.646Z,27.30
2019-01-11T14:43:54.401Z,27.10
2019-01-11T14:46:26.478Z,27.00
2019-01-11T14:48:58.725Z,27.00
2019-01-11T14:51:30.982Z,26.90
2019-01-11T14:54:03.504Z,26.80
2019-01-11T14:56:36.074Z,26.70
2019-01-11T14:59:08.438Z,26.80
2019-01-11T15:01:41.109Z,26.90
2019-01-11T15:04:13.209Z,26.90
2019-01-11T15:06:45.591Z,26.70
2019-01-11T15:09:17.720Z,26.70
2019-01-11T15:11:49.959Z,26.70
2019-01-11T15:14:22.090Z,26.50
2019-01-11T15:16:54.284Z,26.50
2019-01-11T15:19:27.829Z,26.60
2019-01-11T15:22:00.212Z,26.60
2019-01-11T15:24:32.400Z,26.70
2019-01-11T15:27:04.784Z,26.70
2019-01-11T15:29:37.220Z,26.70
2019-01-11T15:32:09.432Z,26.60
2019-01-11T15:34:42.083Z,26.60
2019-01-11T15:37:15.503Z,26.70
2019-01-11T15:39:48.010Z,26.70
2019-01-11T15:42:20.030Z,26.70
2019-01-11T15:44:52.478Z,26.60
2019-01-11T15:47:24.681Z,26.60
2019-01-11T15:49:56.891Z,26.70
2019-01-11T15:52:33.229Z,26.60
2019-01-11T15:55:03.159Z,26.50
2019-01-11T15:57:36.816Z,26.50
2019-01-11T16:00:11.738Z,26.50
2019-01-11T16:02:44.078Z,26.50
2019-01-11T16:05:16.716Z,26.50
2019-01-11T16:07:50.750Z,26.50
2019-01-11T16:10:23.483Z,26.20
2019-01-11T16:12:55.754Z,26.10
2019-01-11T16:15:30.484Z,26.00
2019-01-11T16:18:05.410Z,26.30
2019-01-11T16:20:37.660Z,26.30
2019-01-11T16:23:10.391Z,26.30
2019-01-11T16:25:42.759Z,26.10
2019-01-11T16:28:15.137Z,25.90
2019-01-11T16:30:47.397Z,25.70
2019-01-11T16:33:32.387Z,25.80
2019-01-11T16:36:04.856Z,25.60
2019-01-11T16:38:37.329Z,25.60
2019-01-11T16:41:09.336Z,25.70
2019-01-11T16:43:42.069Z,25.80
2019-01-11T16:46:33.470Z,25.80
2019-01-11T16:49:05.920Z,25.80
2019-01-11T16:51:38.198Z,25.80
2019-01-11T16:54:11.007Z,25.80
2019-01-11T16:56:43.287Z,25.70
2019-01-11T16:59:15.583Z,25.80
2019-01-11T17:01:47.880Z,25.80
2019-01-11T17:04:20.232Z,25.70
2019-01-11T17:06:52.568Z,25.70
2019-01-11T17:09:25.064Z,25.70
2019-01-11T17:11:57.333Z,25.60
2019-01-11T17:14:29.734Z,25.60
2019-01-11T17:17:01.886Z,25.60
2019-01-11T17:19:34.440Z,25.50
2019-01-11T17:22:07.021Z,25.40
2019-01-11T17:24:39.427Z,25.50
2019-01-11T17:27:11.592Z,25.30
2019-01-11T17:29:47.059Z,25.20
2019-01-11T17:32:17.241Z,25.10
2019-01-11T17:34:49.783Z,25.00
2019-01-11T17:37:21.966Z,25.00
2019-01-11T17:39:54.582Z,25.10
2019-01-11T17:42:26.707Z,25.10
2019-01-11T17:44:58.934Z,25.10
2019-01-11T17:47:31.012Z,25.20
2019-01-11T17:50:03.807Z,25.30
2019-01-11T17:52:36.372Z,25.30
2019-01-11T17:55:09.026Z,25.20
2019-01-11T17:57:41.799Z,25.10
2019-01-11T18:00:16.451Z,24.90
2019-01-11T18:02:48.921Z,24.90
2019-01-11T18:05:21.399Z,25.10
2019-01-11T18:07:53.699Z,25.20
2019-01-11T18:10:25.886Z,25.20
2019-01-11T18:12:58.577Z,25.10
2019-01-11T18:15:30.878Z,25.20
2019-01-11T18:18:03.080Z,25.30
2019-01-11T18:20:36.058Z,25.30
2019-01-11T18:23:08.446Z,25.20
2019-01-11T18:25:40.838Z,25.10
2019-01-11T18:28:13.691Z,25.10
2019-01-11T18:30:46.136Z,25.10
2019-01-11T18:33:18.778Z,25.10
2019-01-11T18:35:51.130Z,24.90
2019-01-11T18:38:23.714Z,25.00
2019-01-11T18:40:55.868Z,25.00
2019-01-11T18:43:28.563Z,25.10
2019-01-11T18:46:00.825Z,25.00
2019-01-11T18:48:33.443Z,24.90
2019-01-11T18:51:06.020Z,24.90
2019-01-11T18:53:38.327Z,24.80
2019-01-11T18:56:10.960Z,24.70
2019-01-11T18:58:43.227Z,24.70
2019-01-11T19:01:15.390Z,24.80
2019-01-11T19:03:47.553Z,24.80
2019-01-11T19:06:19.721Z,24.70
2019-01-11T19:08:51.803Z,24.60
2019-01-11T19:11:23.879Z,24.40
2019-01-11T19:13:56.479Z,24.40
2019-01-11T19:16:29.204Z,24.20
2019-01-11T19:19:01.481Z,24.30
2019-01-11T19:21:33.786Z,24.40
2019-01-11T19:24:06.333Z,24.50
2019-01-11T19:26:38.785Z,24.30
2019-01-11T19:29:11.025Z,24.40
2019-01-11T19:31:43.839Z,24.40
2019-01-11T19:34:15.890Z,24.20
2019-01-11T19:36:48.341Z,24.10
2019-01-11T19:39:20.426Z,24.00
2019-01-11T19:41:52.606Z,24.10
2019-01-11T19:44:24.586Z,24.20
2019-01-11T19:46:56.844Z,24.20
2019-01-11T19:49:29.070Z,24.30
2019-01-11T19:52:01.343Z,24.30
2019-01-11T19:54:34.566Z,24.40
2019-01-11T19:57:07.983Z,24.30
2019-01-11T19:59:40.310Z,24.30
2019-01-11T20:02:12.652Z,24.30
2019-01-11T20:04:44.825Z,24.40
2019-01-11T20:07:17.528Z,24.30
2019-01-11T20:09:49.701Z,24.30
2019-01-11T20:12:22.114Z,24.20
2019-01-11T20:14:54.373Z,24.30
2019-01-11T20:17:26.628Z,24.20
2019-01-11T20:19:58.723Z,24.20
2019-01-11T20:22:31.076Z,24.20
2019-01-11T20:25:03.862Z,24.30
2019-01-11T20:27:36.439Z,24.30
2019-01-11T20:30:11.475Z,24.30
2019-01-11T20:32:44.348Z,24.20
2019-01-11T20:35:17.611Z,24.20
2019-01-11T20:37:50.502Z,24.20
2019-01-11T20:40:22.467Z,24.20
2019-01-11T20:42:55.149Z,24.20
2019-01-11T20:45:27.091Z,24.00
2019-01-11T20:47:59.381Z,24.00
2019-01-11T20:50:31.545Z,24.00
2019-01-11T20:53:04.150Z,24.00
2019-01-11T20:55:36.480Z,24.10
2019-01-11T20:58:08.631Z,24.00
2019-01-11T21:00:40.808Z,24.00
2019-01-11T21:03:13.234Z,24.10
2019-01-11T21:05:45.462Z,24.10
2019-01-11T21:08:18.198Z,24.10
2019-01-11T21:10:50.474Z,24.00
2019-01-11T21:13:23.651Z,24.00
2019-01-11T21:15:55.993Z,23.90
2019-01-11T21:18:28.694Z,23.70
2019-01-11T21:21:01.058Z,23.60
2019-01-11T21:23:33.915Z,23.50
2019-01-11T21:26:06.108Z,23.70
2019-01-11T21:28:38.585Z,23.70
2019-01-11T21:31:10.894Z,23.70
2019-01-11T21:33:43.546Z,23.70
2019-01-11T21:36:15.917Z,23.70
2019-01-11T21:38:48.092Z,23.70
2019-01-11T21:41:20.413Z,23.60
2019-01-11T21:43:53.039Z,23.60
2019-01-11T21:46:25.279Z,23.70
2019-01-11T21:48:57.444Z,23.60
2019-01-11T21:51:30.153Z,23.60
2019-01-11T21:54:02.601Z,23.70
2019-01-11T21:56:35.459Z,23.60
2019-01-11T21:59:07.930Z,23.60
2019-01-11T22:01:40.228Z,23.60
2019-01-11T22:04:12.431Z,23.70
2019-01-11T22:06:44.902Z,23.60
2019-01-11T22:09:17.493Z,23.60
2019-01-11T22:11:49.787Z,23.50
2019-01-11T22:14:22.530Z,23.50
2019-01-11T22:16:55.006Z,23.40
2019-01-11T22:19:27.601Z,23.30
2019-01-11T22:21:59.874Z,23.30
2019-01-11T22:24:33.252Z,23.00
2019-01-11T22:27:05.732Z,23.00
2019-01-11T22:29:38.288Z,23.20
2019-01-11T22:32:10.737Z,23.30
2019-01-11T22:34:43.010Z,23.30
2019-01-11T22:37:15.112Z,23.30
2019-01-11T22:39:47.561Z,23.00
2019-01-11T22:42:19.833Z,23.00
2019-01-11T22:44:52.031Z,22.90
2019-01-11T22:47:24.384Z,22.90
2019-01-11T22:49:57.166Z,22.90
2019-01-11T22:52:29.554Z,23.00
2019-01-11T22:55:02.158Z,23.00
2019-01-11T22:57:34.445Z,23.00
2019-01-11T23:00:09.268Z,23.10
2019-01-11T23:02:41.639Z,22.80
2019-01-11T23:05:14.082Z,22.80
2019-01-11T23:07:46.326Z,22.80
2019-01-11T23:10:20.974Z,22.70
2019-01-11T23:12:54.169Z,22.80
2019-01-11T23:15:26.337Z,22.70
2019-01-11T23:17:59.007Z,22.70
2019-01-11T23:20:31.372Z,22.80
2019-01-11T23:23:03.464Z,22.80
2019-01-11T23:25:36.013Z,22.80
2019-01-11T23:28:08.480Z,22.70
2019-01-11T23:30:40.836Z,22.60
2019-01-11T23:33:13.047Z,22.60
2019-01-11T23:35:45.408Z,22.60
2019-01-11T23:38:17.744Z,22.30
2019-01-11T23:40:49.907Z,22.40
2019-01-11T23:43:22.124Z,22.50
2019-01-11T23:45:54.506Z,22.60
2019-01-11T23:48:26.735Z,22.60
2019-01-11T23:50:59.071Z,22.70
2019-01-11T23:53:32.256Z,22.40
2019-01-11T23:56:04.609Z,22.60
2019-01-11T23:58:36.923Z,22.60
